createdAt,value
2018-04-12T00:02:21.357Z,0.60
2018-04-12T00:04:50.533Z,0.60
2018-04-12T00:07:20.193Z,0.60
2018-04-12T00:09:49.001Z,0.60
2018-04-12T00:12:18.923Z,0.50
2018-04-12T00:14:48.054Z,0.50
2018-04-12T00:17:17.634Z,0.50
2018-04-12T00:19:46.497Z,0.50
2018-04-12T00:22:15.357Z,0.50
2018-04-12T00:24:44.939Z,0.40
2018-04-12T00:27:13.830Z,0.40
2018-04-12T00:29:43.072Z,0.40
2018-04-12T00:32:12.018Z,0.40
2018-04-12T00:34:41.220Z,0.40
2018-04-12T00:37:10.080Z,0.40
2018-04-12T00:39:38.959Z,0.30
2018-04-12T00:42:08.334Z,0.30
2018-04-12T00:44:37.180Z,0.30
2018-04-12T00:47:06.013Z,0.30
2018-04-12T00:49:35.258Z,0.30
2018-04-12T00:52:04.564Z,0.30
2018-04-12T00:54:33.723Z,0.30
2018-04-12T00:57:02.885Z,0.30
2018-04-12T00:59:31.791Z,0.30
2018-04-12T01:02:00.855Z,0.20
2018-04-12T01:04:30.909Z,0.20
2018-04-12T01:06:59.876Z,0.20
2018-04-12T01:09:28.769Z,0.20
2018-04-12T01:11:59.112Z,0.20
2018-04-12T01:14:28.064Z,0.10
2018-04-12T01:16:57.273Z,0.10
2018-04-12T01:19:26.304Z,0.10
2018-04-12T01:21:55.528Z,0.10
2018-04-12T01:24:24.357Z,0.00
2018-04-12T01:26:53.833Z,0.00
2018-04-12T01:29:22.690Z,0.00
2018-04-12T01:31:52.464Z,-0.10
2018-04-12T01:34:21.364Z,-0.10
2018-04-12T01:36:50.224Z,-0.10
2018-04-12T01:39:19.135Z,-0.10
2018-04-12T01:41:48.081Z,-0.10
2018-04-12T01:44:17.751Z,-0.10
2018-04-12T01:46:46.648Z,-0.10
2018-04-12T01:49:15.895Z,-0.10
2018-04-12T01:51:45.140Z,-0.20
2018-04-12T01:54:14.237Z,-0.20
2018-04-12T01:56:43.143Z,-0.20
2018-04-12T01:59:12.068Z,-0.20
2018-04-12T02:01:42.773Z,-0.20
2018-04-12T02:04:11.704Z,-0.20
2018-04-12T02:06:42.042Z,-0.20
2018-04-12T02:09:11.245Z,-0.20
2018-04-12T02:11:40.529Z,-0.20
2018-04-12T02:14:10.620Z,-0.20
2018-04-12T02:16:39.607Z,-0.30
2018-04-12T02:19:08.648Z,-0.30
2018-04-12T02:21:37.605Z,-0.30
2018-04-12T02:24:06.512Z,-0.30
2018-04-12T02:26:36.357Z,-0.30
2018-04-12T02:29:05.699Z,-0.30
2018-04-12T02:31:34.724Z,-0.30
2018-04-12T02:34:04.323Z,-0.40
2018-04-12T02:36:33.592Z,-0.40
2018-04-12T02:39:02.426Z,-0.40
2018-04-12T02:41:31.305Z,-0.40
2018-04-12T02:44:00.396Z,-0.40
2018-04-12T02:46:30.093Z,-0.40
2018-04-12T02:48:59.698Z,-0.40
2018-04-12T02:51:29.018Z,-0.50
2018-04-12T02:53:57.847Z,-0.50
2018-04-12T02:56:26.703Z,-0.50
2018-04-12T02:58:55.881Z,-0.50
2018-04-12T03:01:25.636Z,-0.50
2018-04-12T03:03:54.553Z,-0.50
2018-04-12T03:06:24.310Z,-0.50
2018-04-12T03:08:53.168Z,-0.50
2018-04-12T03:11:22.004Z,-0.50
2018-04-12T03:13:51.283Z,-0.50
2018-04-12T03:16:20.943Z,-0.50
2018-04-12T03:18:49.812Z,-0.50
2018-04-12T03:21:18.713Z,-0.50
2018-04-12T03:23:47.943Z,-0.50
2018-04-12T03:26:18.052Z,-0.50
2018-04-12T03:28:47.646Z,-0.50
2018-04-12T03:31:16.532Z,-0.50
2018-04-12T03:33:45.367Z,-0.50
2018-04-12T03:36:14.449Z,-0.50
2018-04-12T03:38:44.148Z,-0.50
2018-04-12T03:41:12.964Z,-0.60
2018-04-12T03:43:42.667Z,-0.60
2018-04-12T03:46:12.279Z,-0.60
2018-04-12T03:48:41.575Z,-0.60
2018-04-12T03:51:10.463Z,-0.60
2018-04-12T03:53:39.771Z,-0.60
2018-04-12T03:56:08.876Z,-0.60
2018-04-12T03:58:37.781Z,-0.60
2018-04-12T04:01:07.801Z,-0.60
2018-04-12T04:03:37.434Z,-0.60
2018-04-12T04:06:06.377Z,-0.60
2018-04-12T04:08:35.918Z,-0.60
2018-04-12T04:11:05.662Z,-0.60
2018-04-12T04:13:34.628Z,-0.60
2018-04-12T04:16:15.985Z,-0.50
2018-04-12T04:18:56.896Z,-0.60
2018-04-12T04:21:25.806Z,-0.60
2018-04-12T04:23:54.661Z,-0.50
2018-04-12T04:26:23.803Z,-0.50
2018-04-12T04:28:52.619Z,-0.50
2018-04-12T04:31:21.506Z,-0.50
2018-04-12T04:33:50.650Z,-0.50
2018-04-12T04:36:19.904Z,-0.40
2018-04-12T04:38:48.850Z,-0.40
2018-04-12T04:41:18.466Z,-0.40
2018-04-12T04:43:48.155Z,-0.30
2018-04-12T04:46:17.492Z,-0.40
2018-04-12T04:48:46.419Z,-0.30
2018-04-12T04:51:15.279Z,-0.30
2018-04-12T04:53:44.141Z,-0.30
2018-04-12T04:56:13.161Z,-0.20
2018-04-12T04:58:42.061Z,-0.20
2018-04-12T05:01:11.801Z,-0.10
2018-04-12T05:03:40.657Z,-0.10
2018-04-12T05:06:09.651Z,-0.10
2018-04-12T05:08:39.228Z,0.00
2018-04-12T05:11:08.340Z,0.00
2018-04-12T05:13:37.365Z,0.10
2018-04-12T05:16:07.327Z,0.20
2018-04-12T05:18:36.252Z,0.20
2018-04-12T05:21:05.219Z,0.20
2018-04-12T05:23:34.739Z,0.30
2018-04-12T05:26:03.744Z,0.40
2018-04-12T05:28:32.702Z,0.40
2018-04-12T05:31:02.719Z,0.50
2018-04-12T05:33:32.403Z,0.60
2018-04-12T05:36:01.476Z,0.60
2018-04-12T05:38:30.645Z,0.70
2018-04-12T05:40:59.582Z,0.70
2018-04-12T05:43:28.560Z,0.80
2018-04-12T05:45:57.477Z,0.90
2018-04-12T05:48:26.404Z,0.90
2018-04-12T05:50:56.160Z,1.10
2018-04-12T05:53:25.019Z,1.10
2018-04-12T05:55:54.654Z,1.20
2018-04-12T05:58:23.513Z,1.20
2018-04-12T06:00:52.626Z,1.30
2018-04-12T06:03:22.008Z,1.40
2018-04-12T06:05:51.115Z,1.40
2018-04-12T06:08:20.359Z,1.50
2018-04-12T06:10:49.331Z,1.60
2018-04-12T06:13:18.931Z,1.70
2018-04-12T06:15:47.750Z,1.70
2018-04-12T06:18:17.907Z,1.90
2018-04-12T06:20:47.676Z,1.90
2018-04-12T06:23:16.960Z,2.00
2018-04-12T06:25:45.805Z,2.10
2018-04-12T06:28:15.077Z,2.20
2018-04-12T06:30:44.136Z,2.30
2018-04-12T06:33:13.781Z,2.40
2018-04-12T06:35:42.992Z,2.40
2018-04-12T06:38:12.697Z,2.60
2018-04-12T06:40:42.110Z,2.60
2018-04-12T06:43:11.648Z,2.70
2018-04-12T06:45:41.680Z,2.90
2018-04-12T06:48:10.946Z,2.90
2018-04-12T06:50:40.889Z,3.10
2018-04-12T06:53:09.791Z,3.00
2018-04-12T06:55:38.612Z,3.20
2018-04-12T06:58:07.756Z,3.20
2018-04-12T07:00:36.907Z,3.30
2018-04-12T07:03:07.023Z,3.60
2018-04-12T07:05:35.945Z,3.50
2018-04-12T07:08:05.198Z,3.70
2018-04-12T07:10:34.013Z,3.80
2018-04-12T07:13:02.895Z,3.90
2018-04-12T07:15:31.711Z,4.00
2018-04-12T07:18:00.948Z,4.10
2018-04-12T07:20:29.849Z,4.20
2018-04-12T07:22:58.643Z,4.30
2018-04-12T07:25:27.703Z,4.40
2018-04-12T07:27:57.380Z,4.70
2018-04-12T07:30:26.178Z,4.60
2018-04-12T07:32:54.979Z,4.80
2018-04-12T07:35:23.847Z,4.90
2018-04-12T07:37:53.256Z,5.00
2018-04-12T07:40:22.479Z,5.10
2018-04-12T07:42:51.567Z,5.20
2018-04-12T07:45:20.713Z,5.40
2018-04-12T07:47:50.003Z,5.50
2018-04-12T07:50:19.190Z,5.60
2018-04-12T07:52:48.075Z,5.70
2018-04-12T07:55:18.123Z,6.00
2018-04-12T07:57:47.100Z,6.00
2018-04-12T08:00:15.919Z,6.10
2018-04-12T08:02:44.743Z,6.30
2018-04-12T08:05:13.680Z,6.40
2018-04-12T08:07:42.506Z,6.50
2018-04-12T08:10:11.315Z,6.60
2018-04-12T08:12:40.732Z,6.80
2018-04-12T08:15:09.623Z,6.90
2018-04-12T08:17:38.443Z,7.00
2018-04-12T08:20:08.236Z,7.20
2018-04-12T08:22:37.061Z,7.20
2018-04-12T08:25:05.976Z,7.30
2018-04-12T08:27:34.842Z,7.40
2018-04-12T08:30:03.811Z,7.60
2018-04-12T08:32:33.864Z,7.80
2018-04-12T08:35:03.193Z,7.80
2018-04-12T08:37:32.059Z,7.90
2018-04-12T08:40:01.351Z,8.10
2018-04-12T08:42:31.499Z,8.30
2018-04-12T08:45:00.321Z,8.30
2018-04-12T08:47:29.126Z,8.50
2018-04-12T08:49:58.065Z,8.60
2018-04-12T08:52:28.176Z,8.80
2018-04-12T08:54:57.159Z,8.80
2018-04-12T08:57:26.358Z,8.90
2018-04-12T08:59:55.598Z,9.00
2018-04-12T09:02:24.822Z,9.00
2018-04-12T09:04:53.635Z,9.10
2018-04-12T09:07:23.631Z,9.20
2018-04-12T09:09:52.458Z,9.20
2018-04-12T09:12:21.399Z,9.30
2018-04-12T09:14:51.368Z,9.50
2018-04-12T09:17:20.243Z,9.40
2018-04-12T09:19:49.463Z,9.50
2018-04-12T09:22:19.551Z,9.70
2018-04-12T09:24:48.767Z,9.70
2018-04-12T09:27:17.634Z,9.80
2018-04-12T09:29:46.831Z,9.90
2018-04-12T09:32:15.993Z,10.00
2018-04-12T09:34:45.919Z,10.10
2018-04-12T09:37:14.915Z,10.10
2018-04-12T09:39:44.599Z,10.30
2018-04-12T09:42:13.590Z,10.20
2018-04-12T09:44:42.410Z,10.30
2018-04-12T09:47:11.227Z,10.40
2018-04-12T09:49:40.096Z,10.50
2018-04-12T09:52:09.138Z,10.60
2018-04-12T09:54:38.799Z,10.80
2018-04-12T09:57:07.666Z,10.80
2018-04-12T09:59:36.499Z,10.90
2018-04-12T10:02:05.495Z,11.00
2018-04-12T10:04:49.142Z,11.00
2018-04-12T10:07:18.091Z,11.10
2018-04-12T10:09:46.908Z,11.20
2018-04-12T10:12:15.784Z,11.30
2018-04-12T10:14:44.651Z,11.40
2018-04-12T10:17:14.251Z,11.50
2018-04-12T10:19:43.491Z,11.40
2018-04-12T10:22:12.311Z,11.50
2018-04-12T10:24:41.171Z,11.60
2018-04-12T10:27:10.411Z,11.70
2018-04-12T10:29:40.251Z,11.90
2018-04-12T10:32:09.131Z,11.90
2018-04-12T10:34:38.013Z,12.00
2018-04-12T10:37:07.215Z,12.00
2018-04-12T10:39:36.343Z,12.10
2018-04-12T10:42:05.465Z,12.10
2018-04-12T10:44:34.351Z,12.10
2018-04-12T10:47:03.644Z,12.20
2018-04-12T10:49:32.441Z,12.30
2018-04-12T10:52:01.394Z,12.40
2018-04-12T10:54:30.399Z,12.50
2018-04-12T10:56:59.598Z,12.60
2018-04-12T10:59:28.487Z,12.70
2018-04-12T11:01:57.380Z,12.70
2018-04-12T11:04:26.271Z,12.80
2018-04-12T11:06:55.148Z,12.80
2018-04-12T11:09:24.228Z,12.80
2018-04-12T11:11:53.147Z,12.80
2018-04-12T11:14:23.115Z,12.90
2018-04-12T11:16:52.008Z,12.90
2018-04-12T11:19:21.836Z,13.20
2018-04-12T11:21:51.035Z,13.10
2018-04-12T11:24:20.232Z,13.30
2018-04-12T11:26:49.554Z,13.30
2018-04-12T11:29:19.156Z,13.40
2018-04-12T11:31:48.479Z,13.30
2018-04-12T11:34:18.074Z,13.30
2018-04-12T11:36:47.703Z,13.20
2018-04-12T11:39:17.679Z,13.20
2018-04-12T11:41:47.111Z,13.20
2018-04-12T11:44:15.934Z,13.30
2018-04-12T11:46:44.784Z,13.40
2018-04-12T11:49:14.480Z,13.70
2018-04-12T11:51:43.572Z,13.60
2018-04-12T11:54:13.720Z,14.00
2018-04-12T11:56:42.565Z,13.90
2018-04-12T11:59:11.517Z,14.00
2018-04-12T12:01:40.375Z,14.10
2018-04-12T12:04:09.209Z,14.10
2018-04-12T12:06:38.080Z,14.20
2018-04-12T12:09:07.291Z,14.30
2018-04-12T12:11:36.098Z,14.30
2018-04-12T12:14:05.022Z,14.30
2018-04-12T12:16:33.848Z,14.30
2018-04-12T12:19:03.627Z,14.60
2018-04-12T12:21:33.211Z,14.60
2018-04-12T12:24:02.030Z,14.50
2018-04-12T12:26:31.671Z,14.40
2018-04-12T12:29:00.564Z,14.40
2018-04-12T12:31:29.447Z,14.40
2018-04-12T12:33:58.701Z,14.40
2018-04-12T12:36:27.893Z,14.60
2018-04-12T12:38:57.223Z,14.80
2018-04-12T12:41:26.117Z,15.00
2018-04-12T12:43:54.939Z,15.30
2018-04-12T12:46:23.749Z,15.30
2018-04-12T12:48:53.799Z,15.70
2018-04-12T12:51:22.628Z,15.70
2018-04-12T12:53:52.249Z,16.20
2018-04-12T12:56:21.290Z,16.20
2018-04-12T12:58:50.097Z,16.30
2018-04-12T13:01:19.018Z,16.40
2018-04-12T13:03:48.247Z,16.50
2018-04-12T13:06:17.067Z,16.60
2018-04-12T13:08:45.929Z,16.60
2018-04-12T13:11:15.184Z,16.50
2018-04-12T13:13:43.975Z,16.60
2018-04-12T13:16:13.900Z,16.90
2018-04-12T13:18:43.531Z,17.00
2018-04-12T13:21:12.756Z,17.00
2018-04-12T13:23:42.405Z,17.40
2018-04-12T13:26:11.267Z,17.40
2018-04-12T13:28:41.086Z,17.40
2018-04-12T13:31:10.400Z,17.40
2018-04-12T13:33:39.196Z,17.60
2018-04-12T13:36:08.439Z,17.70
2018-04-12T13:38:37.626Z,17.60
2018-04-12T13:41:06.437Z,17.60
2018-04-12T13:43:35.610Z,17.40
2018-04-12T13:46:04.471Z,17.30
2018-04-12T13:48:33.842Z,17.30
2018-04-12T13:51:03.107Z,17.30
2018-04-12T13:53:31.992Z,17.30
2018-04-12T13:56:00.799Z,17.30
2018-04-12T13:58:29.653Z,17.20
2018-04-12T14:00:58.900Z,17.10
2018-04-12T14:03:27.759Z,17.00
2018-04-12T14:05:56.846Z,17.10
2018-04-12T14:08:25.647Z,17.00
2018-04-12T14:10:55.300Z,16.80
2018-04-12T14:13:24.133Z,16.80
2018-04-12T14:15:53.415Z,16.80
2018-04-12T14:18:22.206Z,16.70
2018-04-12T14:20:51.025Z,16.60
2018-04-12T14:23:19.920Z,16.60
2018-04-12T14:25:49.168Z,16.60
2018-04-12T14:28:17.969Z,16.60
2018-04-12T14:30:46.835Z,16.60
2018-04-12T14:33:15.683Z,16.50
2018-04-12T14:35:44.580Z,16.50
2018-04-12T14:38:13.675Z,16.60
2018-04-12T14:40:42.468Z,16.70
2018-04-12T14:43:11.334Z,16.90
2018-04-12T14:45:40.331Z,17.10
2018-04-12T14:48:09.394Z,17.10
2018-04-12T14:50:38.971Z,17.10
2018-04-12T14:53:07.874Z,17.10
2018-04-12T14:55:37.018Z,17.10
2018-04-12T14:58:06.310Z,17.10
2018-04-12T15:00:35.986Z,17.30
2018-04-12T15:03:05.314Z,17.30
2018-04-12T15:05:34.132Z,17.30
2018-04-12T15:08:02.942Z,17.30
2018-04-12T15:10:31.823Z,17.30
2018-04-12T15:13:00.686Z,17.30
2018-04-12T15:15:30.372Z,17.00
2018-04-12T15:17:59.209Z,17.00
2018-04-12T15:20:28.869Z,16.90
2018-04-12T15:22:58.130Z,16.90
2018-04-12T15:25:27.031Z,16.90
2018-04-12T15:27:55.902Z,16.90
2018-04-12T15:30:25.220Z,17.00
2018-04-12T15:32:54.871Z,16.70
2018-04-12T15:35:23.713Z,16.60
2018-04-12T15:37:52.752Z,16.50
2018-04-12T15:40:21.617Z,16.50
2018-04-12T15:42:50.886Z,16.50
2018-04-12T15:45:19.805Z,16.40
2018-04-12T15:47:48.757Z,16.40
2018-04-12T15:50:17.824Z,16.30
2018-04-12T15:52:46.802Z,16.10
2018-04-12T15:55:16.570Z,16.40
2018-04-12T15:57:46.195Z,16.50
2018-04-12T16:00:15.528Z,16.50
2018-04-12T16:02:44.434Z,16.70
2018-04-12T16:05:16.304Z,16.60
2018-04-12T16:07:45.879Z,16.60
2018-04-12T16:10:16.826Z,16.40
2018-04-12T16:12:48.311Z,16.40
2018-04-12T16:15:17.212Z,16.30
2018-04-12T16:17:47.085Z,16.20
2018-04-12T16:20:16.831Z,16.10
2018-04-12T16:22:46.400Z,16.10
2018-04-12T16:25:16.292Z,16.10
2018-04-12T16:27:45.915Z,16.00
2018-04-12T16:30:14.788Z,16.00
2018-04-12T16:32:43.679Z,15.70
2018-04-12T16:35:14.336Z,15.20
2018-04-12T16:37:43.208Z,15.20
2018-04-12T16:40:12.019Z,14.90
2018-04-12T16:42:40.865Z,14.60
2018-04-12T16:45:09.966Z,14.40
2018-04-12T16:47:38.803Z,14.30
2018-04-12T16:50:07.743Z,14.20
2018-04-12T16:52:36.788Z,14.20
2018-04-12T16:55:05.604Z,14.20
2018-04-12T16:57:34.439Z,13.90
2018-04-12T17:00:03.478Z,13.80
2018-04-12T17:02:32.429Z,13.70
2018-04-12T17:05:01.239Z,13.50
2018-04-12T17:07:30.059Z,13.40
2018-04-12T17:09:58.939Z,13.20
2018-04-12T17:12:27.808Z,13.00
2018-04-12T17:14:56.801Z,12.70
2018-04-12T17:17:25.692Z,12.30
2018-04-12T17:19:54.567Z,12.10
2018-04-12T17:22:23.652Z,11.80
2018-04-12T17:24:52.523Z,11.60
2018-04-12T17:27:22.140Z,11.30
2018-04-12T17:29:51.801Z,11.10
2018-04-12T17:32:21.254Z,11.10
2018-04-12T17:34:51.500Z,10.70
2018-04-12T17:37:20.892Z,10.60
2018-04-12T17:39:50.873Z,10.20
2018-04-12T17:42:19.683Z,10.20
2018-04-12T17:44:48.542Z,10.00
2018-04-12T17:47:17.451Z,9.70
2018-04-12T17:49:46.367Z,9.50
2018-04-12T17:52:15.237Z,9.30
2018-04-12T17:54:44.134Z,9.10
2018-04-12T17:57:13.284Z,8.90
2018-04-12T17:59:42.909Z,8.70
2018-04-12T18:02:12.144Z,8.70
2018-04-12T18:04:41.476Z,8.70
2018-04-12T18:07:10.291Z,8.60
2018-04-12T18:09:39.583Z,8.60
2018-04-12T18:12:09.265Z,8.40
2018-04-12T18:14:38.108Z,8.30
2018-04-12T18:17:07.766Z,8.10
2018-04-12T18:19:36.700Z,8.10
2018-04-12T18:22:06.431Z,7.80
2018-04-12T18:24:35.535Z,7.80
2018-04-12T18:27:05.239Z,7.60
2018-04-12T18:32:09.220Z,7.50
2018-04-12T18:34:38.161Z,7.40
2018-04-12T18:37:07.964Z,7.30
2018-04-12T18:39:36.867Z,7.30
2018-04-12T18:42:05.721Z,7.20
2018-04-12T18:44:34.976Z,7.10
2018-04-12T18:47:04.482Z,7.00
2018-04-12T18:49:33.688Z,7.00
2018-04-12T18:52:04.974Z,6.70
2018-04-12T18:54:34.015Z,6.70
2018-04-12T18:57:02.999Z,6.60
2018-04-12T18:59:31.888Z,6.60
2018-04-12T19:02:01.168Z,6.50
2018-04-12T19:04:30.072Z,6.40
2018-04-12T19:06:58.906Z,6.30
2018-04-12T19:09:28.109Z,6.20
2018-04-12T19:11:57.435Z,6.20
2018-04-12T19:14:27.239Z,6.00
2018-04-12T19:16:56.135Z,5.90
2018-04-12T19:19:25.752Z,5.80
2018-04-12T19:21:55.159Z,5.80
2018-04-12T19:24:24.284Z,5.70
2018-04-12T19:26:53.472Z,5.60
2018-04-12T19:29:23.924Z,5.50
2018-04-12T19:31:53.615Z,5.40
2018-04-12T19:34:23.738Z,5.30
2018-04-12T19:36:52.749Z,5.30
2018-04-12T19:39:22.686Z,5.20
2018-04-12T19:41:52.344Z,5.10
2018-04-12T19:44:21.327Z,5.10
2018-04-12T19:46:50.170Z,5.00
2018-04-12T19:49:19.478Z,5.00
2018-04-12T19:51:48.340Z,4.90
2018-04-12T19:54:17.274Z,4.80
2018-04-12T19:56:46.085Z,4.70
2018-04-12T19:59:15.111Z,4.60
2018-04-12T20:01:45.178Z,4.50
2018-04-12T20:04:15.322Z,4.40
2018-04-12T20:06:44.272Z,4.40
2018-04-12T20:09:13.204Z,4.30
2018-04-12T20:11:42.049Z,4.20
2018-04-12T20:14:11.274Z,4.20
2018-04-12T20:16:40.882Z,4.10
2018-04-12T20:19:10.513Z,4.00
2018-04-12T20:21:39.471Z,4.00
2018-04-12T20:24:09.135Z,3.90
2018-04-12T20:26:38.028Z,3.90
2018-04-12T20:29:06.956Z,3.80
2018-04-12T20:31:36.248Z,3.80
2018-04-12T20:34:05.300Z,3.80
2018-04-12T20:36:34.230Z,3.70
2018-04-12T20:39:03.239Z,3.70
2018-04-12T20:41:32.347Z,3.60
2018-04-12T20:44:01.582Z,3.60
2018-04-12T20:46:30.997Z,3.50
2018-04-12T20:49:00.201Z,3.50
2018-04-12T20:51:30.368Z,3.30
2018-04-12T20:53:59.222Z,3.30
2018-04-12T20:56:28.731Z,3.30
2018-04-12T20:58:58.329Z,3.20
2018-04-12T21:01:28.020Z,3.20
2018-04-12T21:03:57.276Z,3.10
2018-04-12T21:06:26.925Z,3.10
2018-04-12T21:08:55.866Z,3.10
2018-04-12T21:11:24.769Z,3.00
2018-04-12T21:13:54.328Z,3.00
2018-04-12T21:16:23.520Z,2.90
2018-04-12T21:18:53.277Z,2.90
2018-04-12T21:21:24.955Z,2.80
2018-04-12T21:23:53.850Z,2.80
2018-04-12T21:26:22.727Z,2.80
2018-04-12T21:28:52.662Z,2.70
2018-04-12T21:31:23.688Z,2.70
2018-04-12T21:33:52.835Z,2.60
2018-04-12T21:36:22.277Z,2.60
2018-04-12T21:38:52.656Z,2.60
2018-04-12T21:41:21.891Z,2.50
2018-04-12T21:43:50.732Z,2.50
2018-04-12T21:46:20.527Z,2.40
2018-04-12T21:48:49.354Z,2.40
2018-04-12T21:51:18.672Z,2.40
2018-04-12T21:53:48.601Z,2.40
2018-04-12T21:56:17.423Z,2.30
2018-04-12T21:58:46.255Z,2.30
2018-04-12T22:01:15.341Z,2.30
2018-04-12T22:06:16.824Z,2.20
2018-04-12T22:08:45.639Z,2.10
2018-04-12T22:11:14.728Z,2.10
2018-04-12T22:13:43.627Z,2.10
2018-04-12T22:16:12.588Z,2.00
2018-04-12T22:18:41.535Z,2.00
2018-04-12T22:21:10.961Z,2.00
2018-04-12T22:23:40.167Z,2.00
2018-04-12T22:26:09.363Z,2.00
2018-04-12T22:28:38.256Z,2.00
2018-04-12T22:31:08.719Z,2.00
2018-04-12T22:33:38.909Z,1.90
2018-04-12T22:36:08.351Z,1.90
2018-04-12T22:38:38.026Z,1.80
2018-04-12T22:41:06.885Z,1.80
2018-04-12T22:43:36.535Z,1.80
2018-04-12T22:46:05.417Z,1.80
2018-04-12T22:48:34.397Z,1.80
2018-04-12T22:51:03.271Z,1.80
2018-04-12T22:53:33.179Z,1.80
2018-04-12T22:56:03.112Z,1.70
2018-04-12T22:58:32.333Z,1.70
2018-04-12T23:01:01.484Z,1.70
2018-04-12T23:03:30.774Z,1.70
2018-04-12T23:06:00.062Z,1.70
2018-04-12T23:08:28.873Z,1.60
2018-04-12T23:10:57.717Z,1.60
2018-04-12T23:13:26.626Z,1.60
2018-04-12T23:15:55.548Z,1.60
2018-04-12T23:18:25.191Z,1.60
2018-04-12T23:20:54.988Z,1.50
2018-04-12T23:23:24.078Z,1.50
2018-04-12T23:25:52.964Z,1.50
2018-04-12T23:28:22.328Z,1.50
2018-04-12T23:30:51.223Z,1.50
2018-04-12T23:33:21.258Z,1.40
2018-04-12T23:35:50.566Z,1.40
2018-04-12T23:38:19.898Z,1.40
2018-04-12T23:40:48.733Z,1.40
2018-04-12T23:43:18.014Z,1.30
2018-04-12T23:45:46.888Z,1.30
2018-04-12T23:48:15.721Z,1.30
2018-04-12T23:50:45.668Z,1.20
2018-04-12T23:53:14.505Z,1.20
2018-04-12T23:55:43.834Z,1.20
2018-04-12T23:58:13.324Z,1.10
